Time;durP1;ratioP1;P1;durP2;ratioP2;P2;SDS_P1;SDS_P2;PMS_P1;PMS_P2;Temp;Humidity;BMP_temperature;BMP_pressure;BME280_temperature;BME280_humidity;BME280_pressure;Samples;Min_cycle;Max_cycle;Signal;HPM_P1;HPM_P2
2023/06/03 00:00:56;;;;;;;2.87;1.10;;;;;;;6.90;62.46;100811.22;4218565;28;20259;-64
2023/06/03 00:03:23;;;;;;;5.73;1.10;;;;;;;6.79;62.65;100813.84;4241173;28;21806;-63
2023/06/03 00:05:51;;;;;;;10.00;1.50;;;;;;;6.61;63.50;100808.84;4221864;28;20276;-64
2023/06/03 00:08:18;;;;;;;4.10;1.33;;;;;;;6.55;63.65;100808.44;4207969;28;21118;-67
2023/06/03 00:10:44;;;;;;;3.90;1.00;;;;;;;6.57;63.66;100806.50;4223781;28;20413;-63
2023/06/03 00:13:11;;;;;;;3.43;1.23;;;;;;;6.47;64.36;100812.56;4230211;28;20585;-66
2023/06/03 00:15:37;;;;;;;5.40;1.20;;;;;;;6.53;64.21;100813.06;4223796;28;20231;-67
2023/06/03 00:18:05;;;;;;;3.47;1.17;;;;;;;6.46;64.47;100812.66;4223869;28;22080;-65
2023/06/03 00:20:35;;;;;;;2.37;1.03;;;;;;;6.51;64.49;100813.19;4226465;28;20239;-67
2023/06/03 00:23:03;;;;;;;4.57;1.50;;;;;;;6.57;64.28;100812.75;4222798;28;20611;-65
2023/06/03 00:25:31;;;;;;;3.40;1.30;;;;;;;6.57;64.46;100818.13;4227099;28;22468;-65
2023/06/03 00:27:58;;;;;;;3.63;1.33;;;;;;;6.50;64.92;100817.69;4200522;28;21372;-64
2023/06/03 00:30:25;;;;;;;6.07;1.17;;;;;;;6.42;65.04;100803.94;4227839;28;22488;-64
2023/06/03 00:32:51;;;;;;;6.23;0.90;;;;;;;6.53;65.01;100821.16;4227560;28;20297;-63
2023/06/03 00:35:18;;;;;;;5.37;1.00;;;;;;;6.52;65.10;100816.72;4189893;28;20820;-64
2023/06/03 00:37:45;;;;;;;4.63;1.13;;;;;;;6.48;65.36;100818.78;4219981;28;21704;-65
2023/06/03 00:40:11;;;;;;;4.67;1.23;;;;;;;6.58;64.99;100825.22;4219548;28;20322;-66
2023/06/03 00:42:38;;;;;;;5.93;1.20;;;;;;;6.54;65.36;100826.41;4228321;28;20298;-66
2023/06/03 00:45:05;;;;;;;1.10;0.80;;;;;;;6.46;65.89;100824.28;4224915;28;20243;-66
2023/06/03 00:47:32;;;;;;;5.23;1.43;;;;;;;6.36;66.89;100825.06;4225470;28;20348;-64
2023/06/03 00:49:59;;;;;;;4.83;1.40;;;;;;;6.24;67.78;100826.81;4231414;28;21195;-66
2023/06/03 00:52:26;;;;;;;4.63;1.50;;;;;;;6.06;68.25;100823.59;4205454;28;20235;-65
2023/06/03 00:54:53;;;;;;;4.77;1.43;;;;;;;5.92;68.31;100822.72;4227827;28;20235;-63
2023/06/03 00:57:21;;;;;;;5.03;1.53;;;;;;;5.71;68.85;100831.28;4233703;28;20236;-63
2023/06/03 00:59:48;;;;;;;2.53;1.20;;;;;;;5.56;69.17;100829.66;4217466;28;21453;-64
2023/06/03 01:02:15;;;;;;;4.40;1.40;;;;;;;5.44;70.36;100830.50;4226973;28;22266;-64
2023/06/03 01:04:45;;;;;;;4.37;1.43;;;;;;;5.38;70.05;100838.03;4234213;28;20351;-64
2023/06/03 01:07:18;;;;;;;5.80;1.27;;;;;;;5.29;70.57;100832.41;4210203;28;20244;-64
2023/06/03 01:10:21;;;;;;;3.97;1.60;;;;;;;5.15;71.58;100831.50;4223500;28;20232;-65
2023/06/03 01:13:01;;;;;;;5.53;1.33;;;;;;;5.04;71.96;100837.59;4225779;28;22147;-65
2023/06/03 01:15:31;;;;;;;2.27;1.40;;;;;;;5.11;71.33;100838.06;4229982;28;20230;-64
2023/06/03 01:18:03;;;;;;;5.70;1.70;;;;;;;5.17;71.29;100840.31;4202468;28;21531;-66
2023/06/03 01:20:31;;;;;;;6.03;1.50;;;;;;;5.23;71.32;100845.28;4231891;28;20247;-64
2023/06/03 01:23:11;;;;;;;2.73;1.40;;;;;;;5.23;70.85;100844.44;4221931;28;21269;-64
2023/06/03 01:25:41;;;;;;;7.13;2.00;;;;;;;5.19;71.05;100843.78;4210086;28;20753;-65
2023/06/03 01:28:08;;;;;;;4.13;1.33;;;;;;;4.97;72.12;100846.16;4210786;28;20229;-66
2023/06/03 01:30:35;;;;;;;8.00;1.77;;;;;;;4.88;72.44;100853.84;4209885;28;20299;-63
2023/06/03 01:33:02;;;;;;;2.77;1.50;;;;;;;4.79;72.88;100851.75;4209884;28;20239;-64
2023/06/03 01:35:29;;;;;;;2.77;1.17;;;;;;;4.73;72.86;100849.47;4196581;28;20235;-64
2023/06/03 01:37:56;;;;;;;2.87;1.00;;;;;;;4.73;72.81;100855.69;4199614;28;22038;-63
2023/06/03 01:40:23;;;;;;;5.80;1.40;;;;;;;4.73;73.00;100852.16;4214607;28;20249;-64
2023/06/03 01:42:50;;;;;;;4.07;1.43;;;;;;;4.77;72.87;100853.66;4186548;28;20266;-64
2023/06/03 01:45:16;;;;;;;2.90;1.40;;;;;;;4.78;72.99;100859.91;4204942;28;20235;-64
2023/06/03 01:47:43;;;;;;;6.53;1.77;;;;;;;4.80;72.86;100858.84;4206466;28;20295;-63
2023/06/03 01:50:10;;;;;;;4.17;1.40;;;;;;;4.82;72.91;100858.75;4205433;28;20238;-64
2023/06/03 01:52:36;;;;;;;6.23;1.93;;;;;;;4.83;73.14;100858.66;4214897;28;20268;-66
2023/06/03 01:55:04;;;;;;;9.90;2.57;;;;;;;4.86;72.56;100861.13;4209763;28;20247;-67
2023/06/03 01:57:30;;;;;;;3.37;1.63;;;;;;;4.92;72.76;100863.41;4215932;28;20247;-64
2023/06/03 01:59:57;;;;;;;6.97;1.50;;;;;;;4.94;72.39;100862.44;4209843;28;21120;-63
2023/06/03 02:02:23;;;;;;;4.83;1.67;;;;;;;4.89;72.57;100871.66;4201617;28;22715;-64
2023/06/03 02:04:51;;;;;;;7.13;1.80;;;;;;;4.90;72.80;100873.41;4208286;28;20235;-64
2023/06/03 02:07:17;;;;;;;6.47;1.70;;;;;;;4.87;72.86;100872.72;4212518;28;20238;-65
2023/06/03 02:09:44;;;;;;;4.33;1.80;;;;;;;4.81;72.93;100878.47;4204364;28;20910;-66
2023/06/03 02:12:11;;;;;;;6.00;1.63;;;;;;;4.75;72.92;100877.91;4216098;28;20249;-63
2023/06/03 02:14:37;;;;;;;5.40;1.43;;;;;;;4.56;73.76;100883.59;4200157;28;20240;-66
2023/06/03 02:17:04;;;;;;;3.57;1.53;;;;;;;4.54;73.91;100881.97;4208935;28;20824;-66
2023/06/03 02:19:31;;;;;;;3.83;1.80;;;;;;;4.18;76.46;100896.72;4219380;28;20771;-64
2023/06/03 02:21:58;;;;;;;5.97;1.20;;;;;;;4.05;76.96;100897.47;4223751;28;20239;-65
2023/06/03 02:24:28;;;;;;;9.73;2.23;;;;;;;4.06;76.91;100899.19;4219082;28;20246;-65
2023/06/03 02:27:00;;;;;;;7.33;1.80;;;;;;;4.03;76.94;100901.19;4214285;28;20240;-63
2023/06/03 02:29:27;;;;;;;4.57;1.70;;;;;;;3.96;77.40;100898.06;4207520;28;20274;-66
2023/06/03 02:31:55;;;;;;;5.90;1.40;;;;;;;4.15;76.49;100904.94;4231255;28;20236;-65
2023/06/03 02:34:22;;;;;;;3.87;1.70;;;;;;;4.11;76.32;100907.84;4208350;28;20372;-63
2023/06/03 02:36:49;;;;;;;7.93;1.57;;;;;;;4.06;76.52;100904.56;4191135;28;20245;-65
2023/06/03 02:39:16;;;;;;;6.50;1.90;;;;;;;4.06;76.93;100901.03;4225272;28;21682;-64
2023/06/03 02:41:45;;;;;;;8.27;1.77;;;;;;;3.90;77.66;100903.75;4215849;28;20227;-64
2023/06/03 02:44:12;;;;;;;6.97;1.90;;;;;;;3.89;78.12;100912.78;4229671;28;20238;-65
2023/06/03 02:46:39;;;;;;;5.73;2.00;;;;;;;3.87;78.10;100910.16;4219617;28;20313;-65
2023/06/03 02:49:07;;;;;;;4.40;1.40;;;;;;;3.85;78.08;100916.56;4228538;28;20680;-64
2023/06/03 02:51:35;;;;;;;4.47;1.60;;;;;;;3.93;77.41;100917.81;4222425;28;20666;-64
2023/06/03 02:54:01;;;;;;;5.20;1.50;;;;;;;3.91;77.23;100913.53;4213516;28;20928;-66
2023/06/03 02:56:28;;;;;;;5.00;1.67;;;;;;;3.89;77.38;100918.13;4232267;28;20451;-66
2023/06/03 02:58:55;;;;;;;11.93;1.90;;;;;;;3.90;77.72;100927.88;4232028;28;20243;-64
2023/06/03 03:01:22;;;;;;;8.27;2.00;;;;;;;3.89;77.63;100918.97;4229800;28;20317;-66
2023/06/03 03:03:49;;;;;;;9.73;2.10;;;;;;;3.89;78.01;100923.50;4198546;28;20240;-63
2023/06/03 03:06:16;;;;;;;8.53;1.60;;;;;;;3.81;77.92;100913.22;4209823;28;20260;-65
2023/06/03 03:08:43;;;;;;;11.60;1.80;;;;;;;3.82;77.84;100914.94;4223483;28;20244;-64
2023/06/03 03:11:09;;;;;;;3.30;1.67;;;;;;;3.84;78.04;100921.09;4219813;28;20239;-64
2023/06/03 03:13:36;;;;;;;7.97;2.80;;;;;;;3.75;78.41;100922.47;4197209;28;20335;-63
2023/06/03 03:16:03;;;;;;;5.47;1.60;;;;;;;3.75;78.37;100918.94;4210412;28;21150;-64
2023/06/03 03:18:30;;;;;;;4.50;1.87;;;;;;;3.99;77.56;100927.31;4222637;28;20384;-66
2023/06/03 03:20:57;;;;;;;3.30;1.60;;;;;;;4.02;77.01;100928.94;4195654;28;20603;-63
2023/06/03 03:23:24;;;;;;;2.83;1.50;;;;;;;4.05;77.30;100934.13;4204609;28;20243;-64
2023/06/03 03:25:50;;;;;;;4.50;1.67;;;;;;;3.97;77.44;100932.78;4223009;28;23221;-65
2023/06/03 03:28:17;;;;;;;4.30;1.60;;;;;;;4.02;77.79;100935.19;4214052;28;21830;-64
2023/06/03 03:30:45;;;;;;;7.10;1.60;;;;;;;4.07;78.29;100933.06;4206950;28;20232;-64
2023/06/03 03:33:15;;;;;;;6.97;1.80;;;;;;;4.18;77.13;100931.56;4191934;28;20243;-64
2023/06/03 03:35:43;;;;;;;4.43;1.90;;;;;;;4.25;77.16;100939.13;4205725;28;20411;-63
2023/06/03 03:38:10;;;;;;;6.23;1.77;;;;;;;4.41;76.77;100941.75;4225890;28;21955;-65
2023/06/03 03:40:37;;;;;;;4.40;1.43;;;;;;;4.45;76.41;100947.78;4217878;28;20236;-62
2023/06/03 03:43:06;;;;;;;4.77;1.67;;;;;;;4.56;75.88;100950.63;4203743;28;20223;-66
2023/06/03 03:45:37;;;;;;;8.80;1.67;;;;;;;4.78;75.32;100957.31;4208521;28;20293;-64
2023/06/03 03:48:14;;;;;;;4.23;1.50;;;;;;;4.93;74.41;100955.50;4221745;28;20308;-65
2023/06/03 03:50:45;;;;;;;3.07;1.53;;;;;;;4.96;74.39;100951.75;4197860;28;20239;-64
2023/06/03 03:53:18;;;;;;;5.83;2.10;;;;;;;5.10;73.87;100964.28;4216692;28;21554;-64
2023/06/03 03:55:47;;;;;;;3.80;1.40;;;;;;;5.16;74.05;100956.69;4203801;28;20842;-64
2023/06/03 03:58:36;;;;;;;3.53;1.23;;;;;;;5.35;73.48;100963.56;4209737;28;20240;-64
2023/06/03 04:01:09;;;;;;;2.80;1.50;;;;;;;5.44;72.70;100962.91;4214669;28;20592;-63
2023/06/03 04:03:40;;;;;;;4.00;1.17;;;;;;;5.59;72.63;100962.91;4194247;28;22869;-66
2023/06/03 04:06:08;;;;;;;3.10;1.30;;;;;;;5.82;72.29;100966.72;4198924;28;20240;-67
2023/06/03 04:08:45;;;;;;;5.57;1.60;;;;;;;5.87;71.33;100970.81;4213928;28;20327;-63
2023/06/03 04:11:28;;;;;;;6.53;1.33;;;;;;;6.05;71.01;100964.31;4203057;28;20232;-64
2023/06/03 04:13:57;;;;;;;5.27;1.43;;;;;;;6.06;70.81;100974.09;4212673;28;20279;-64
2023/06/03 04:16:42;;;;;;;2.17;1.20;;;;;;;6.32;70.02;100978.53;4219017;28;23423;-64
2023/06/03 04:19:15;;;;;;;2.80;1.37;;;;;;;6.28;69.96;100977.03;4202294;28;20635;-65
2023/06/03 04:21:42;;;;;;;5.00;1.67;;;;;;;6.35;70.01;100974.78;4198657;28;20236;-64
2023/06/03 04:24:09;;;;;;;5.57;2.03;;;;;;;6.44;69.25;100990.28;4207316;28;20235;-64
2023/06/03 04:26:36;;;;;;;6.53;1.63;;;;;;;6.58;69.15;100975.88;4216301;28;20248;-66
2023/06/03 04:29:03;;;;;;;5.23;1.63;;;;;;;6.75;68.75;100990.81;4211202;28;20254;-65
2023/06/03 04:31:30;;;;;;;2.10;1.27;;;;;;;6.79;68.59;100983.38;4206762;28;25899;-66
2023/06/03 04:33:56;;;;;;;6.57;1.60;;;;;;;7.07;67.91;100989.44;4221592;28;20461;-64
2023/06/03 04:36:23;;;;;;;5.00;1.30;;;;;;;7.06;67.71;100999.38;4218762;28;20418;-64
2023/06/03 04:38:51;;;;;;;2.50;1.10;;;;;;;7.26;67.37;100997.06;4216394;28;20596;-64
2023/06/03 04:41:17;;;;;;;5.20;1.73;;;;;;;7.52;66.63;100997.81;4210344;28;21702;-63
2023/06/03 04:43:45;;;;;;;3.60;1.13;;;;;;;7.08;67.71;100994.75;4213341;28;20232;-64
2023/06/03 04:46:12;;;;;;;4.47;1.40;;;;;;;7.27;67.44;101002.34;4228027;28;22290;-63
2023/06/03 04:48:45;;;;;;;4.70;1.07;;;;;;;7.44;67.25;101000.22;4211605;28;21162;-65
2023/06/03 04:51:11;;;;;;;2.67;1.50;;;;;;;7.57;66.52;101000.19;4204119;28;21514;-64
2023/06/03 04:53:40;;;;;;;5.73;1.80;;;;;;;7.56;66.93;101007.41;4215357;28;20334;-64
2023/06/03 04:56:08;;;;;;;5.17;1.53;;;;;;;7.61;66.55;100999.84;4211477;28;23399;-63
2023/06/03 04:58:36;;;;;;;4.63;1.53;;;;;;;7.85;65.68;101003.53;4195644;28;20275;-64
2023/06/03 05:01:04;;;;;;;5.73;1.27;;;;;;;7.99;65.39;100999.75;4217491;28;20233;-64
2023/06/03 05:03:33;;;;;;;6.97;1.33;;;;;;;8.04;65.45;100995.75;4210926;28;21120;-64
2023/06/03 05:06:01;;;;;;;7.37;1.60;;;;;;;8.13;65.61;100994.16;4208449;28;20241;-63
2023/06/03 05:08:27;;;;;;;4.83;1.20;;;;;;;8.23;65.42;100995.19;4225182;28;20626;-65
2023/06/03 05:10:54;;;;;;;4.83;1.00;;;;;;;8.51;64.01;100997.63;4213770;28;20240;-63
2023/06/03 05:13:21;;;;;;;5.93;1.20;;;;;;;8.58;63.82;101001.56;4212837;28;20297;-61
2023/06/03 05:15:48;;;;;;;3.53;1.10;;;;;;;8.79;63.64;101004.41;4217248;28;20236;-65
2023/06/03 06:05:53;;;;;;;3.20;1.23;;;;;;;16.62;41.84;101020.69;4267072;27;20577;-65
2023/06/03 06:08:20;;;;;;;3.87;1.10;;;;;;;16.48;41.28;101023.09;4263692;28;20239;-69
2023/06/03 06:10:46;;;;;;;2.70;1.20;;;;;;;16.86;40.63;101016.22;4238151;28;20239;-68
2023/06/03 06:13:13;;;;;;;5.33;1.10;;;;;;;17.65;38.66;101019.00;4236459;28;20234;-69
2023/06/03 06:15:56;;;;;;;2.40;1.03;;;;;;;16.87;39.82;101020.66;4247183;28;20574;-66
2023/06/03 06:18:23;;;;;;;3.17;0.80;;;;;;;18.02;38.44;101024.78;4245778;28;20243;-67
2023/06/03 06:20:50;;;;;;;5.67;1.30;;;;;;;17.51;39.03;101028.84;4224433;28;20239;-66
2023/06/03 06:23:16;;;;;;;3.37;0.97;;;;;;;17.90;37.83;101029.81;4226690;28;20235;-67
2023/06/03 06:25:50;;;;;;;6.80;1.10;;;;;;;17.01;39.67;101036.38;4258796;28;20510;-68
2023/06/03 06:28:26;;;;;;;2.27;0.80;;;;;;;18.82;36.88;101030.78;4247094;28;20318;-67
2023/06/03 06:30:55;;;;;;;4.30;1.77;;;;;;;18.85;36.49;101022.16;4226203;28;20373;-67
2023/06/03 06:33:22;;;;;;;2.20;0.97;;;;;;;19.67;34.36;101036.81;4228114;28;20382;-66
2023/06/03 06:35:48;;;;;;;4.63;1.20;;;;;;;18.30;36.55;101036.06;4230751;28;21834;-68
2023/06/03 06:38:15;;;;;;;3.37;0.90;;;;;;;17.45;37.94;101029.53;4249674;28;25276;-67
2023/06/03 06:40:43;;;;;;;3.23;1.00;;;;;;;17.06;39.23;101025.75;4237676;28;21438;-67
2023/06/03 06:43:13;;;;;;;3.30;1.17;;;;;;;18.17;37.12;101022.09;4229795;28;21460;-65
2023/06/03 06:45:39;;;;;;;1.40;0.90;;;;;;;17.40;37.49;101024.63;4253319;28;22609;-66
2023/06/03 06:48:08;;;;;;;3.10;0.70;;;;;;;17.26;37.81;101034.41;4226782;28;20235;-65
2023/06/03 06:50:55;;;;;;;3.10;0.90;;;;;;;17.11;38.44;101028.81;4230669;28;20326;-66
2023/06/03 06:53:23;;;;;;;5.20;0.93;;;;;;;16.64;39.35;101026.84;4227162;28;20623;-68
2023/06/03 06:55:51;;;;;;;3.77;0.97;;;;;;;17.29;37.84;101035.09;4244947;28;20288;-64
2023/06/03 06:58:18;;;;;;;7.60;1.00;;;;;;;17.79;37.02;101028.34;4246491;28;23823;-65
2023/06/03 07:00:45;;;;;;;2.93;0.60;;;;;;;17.21;37.84;101014.94;4249563;28;20270;-67
2023/06/03 07:03:18;;;;;;;0.80;0.57;;;;;;;16.72;38.52;101023.25;4229469;28;20721;-64
2023/06/03 07:05:46;;;;;;;7.23;1.13;;;;;;;16.93;38.48;101025.47;4251443;28;20228;-64
2023/06/03 07:08:13;;;;;;;2.50;0.90;;;;;;;16.94;38.39;101016.22;4234336;28;20311;-69
2023/06/03 07:10:39;;;;;;;2.50;1.00;;;;;;;17.36;37.82;101015.03;4236422;28;20231;-66
2023/06/03 07:13:06;;;;;;;3.23;1.00;;;;;;;18.08;36.65;101015.84;4252233;28;20438;-64
2023/06/03 07:15:33;;;;;;;4.13;0.90;;;;;;;18.19;36.26;101018.16;4225507;28;20956;-64
2023/06/03 07:18:00;;;;;;;2.47;0.90;;;;;;;18.07;36.51;101018.75;4237651;28;20326;-67
2023/06/03 08:18:54;;;;;;;2.37;0.60;;;;;;;15.56;38.58;101036.75;4294305;27;20577;-67
2023/06/03 08:21:28;;;;;;;3.97;0.80;;;;;;;15.21;39.28;101027.78;4255066;28;20237;-64
2023/06/03 08:23:54;;;;;;;2.60;0.70;;;;;;;14.95;39.46;101027.81;4237289;28;20279;-65
2023/06/03 08:26:21;;;;;;;1.23;0.60;;;;;;;15.62;38.14;101024.34;4256002;28;20239;-65
2023/06/03 08:28:48;;;;;;;3.47;0.70;;;;;;;15.89;38.68;101028.69;4246030;28;20241;-65
2023/06/03 08:31:14;;;;;;;4.17;0.83;;;;;;;16.44;36.74;101034.56;4249016;28;21208;-66
2023/06/03 08:33:41;;;;;;;1.83;0.93;;;;;;;16.76;36.95;101025.44;4262637;28;20242;-63
2023/06/03 08:36:08;;;;;;;3.27;1.00;;;;;;;17.15;36.34;101028.47;4251346;28;20294;-67
2023/06/03 08:38:35;;;;;;;2.63;0.70;;;;;;;16.43;36.86;101028.22;4232428;28;21627;-63
2023/06/03 08:41:01;;;;;;;4.30;0.80;;;;;;;16.00;38.19;101035.72;4244143;28;20232;-64
2023/06/03 08:43:34;;;;;;;3.03;0.70;;;;;;;16.28;37.44;101035.38;4234138;28;25548;-60
2023/06/03 08:46:07;;;;;;;6.77;1.00;;;;;;;16.71;37.19;101027.88;4233111;28;21180;-64
2023/06/03 08:48:34;;;;;;;2.67;0.80;;;;;;;16.19;38.27;101037.28;4253603;28;22915;-62
2023/06/03 08:51:06;;;;;;;1.57;0.83;;;;;;;15.90;37.02;101032.31;4271297;28;22328;-62
2023/06/03 08:53:55;;;;;;;4.20;0.70;;;;;;;16.34;37.27;101040.19;4236786;28;20313;-64
2023/06/03 08:56:22;;;;;;;5.57;2.50;;;;;;;16.92;36.25;101034.66;4229156;28;20827;-62
2023/06/03 08:58:54;;;;;;;1.13;0.63;;;;;;;16.48;37.70;101035.91;4229324;28;20270;-61
2023/06/03 09:01:27;;;;;;;2.23;0.63;;;;;;;16.31;36.62;101048.72;4230611;28;20241;-63
2023/06/03 09:03:54;;;;;;;5.43;1.00;;;;;;;16.22;36.99;101049.72;4228497;28;20307;-63
2023/06/03 09:06:21;;;;;;;2.33;0.73;;;;;;;16.23;37.62;101044.13;4226312;28;21318;-65
2023/06/03 09:08:50;;;;;;;7.23;0.80;;;;;;;16.65;37.78;101034.03;4227779;28;23525;-62
2023/06/03 09:11:18;;;;;;;3.77;0.90;;;;;;;17.14;36.16;101034.97;4221500;28;22303;-66
2023/06/03 09:13:44;;;;;;;0.93;0.70;;;;;;;17.20;35.38;101036.97;4204483;28;20238;-65
2023/06/03 09:16:11;;;;;;;4.60;0.87;;;;;;;16.57;37.69;101045.81;4202089;28;23226;-67
2023/06/03 09:18:38;;;;;;;4.23;0.90;;;;;;;16.12;38.80;101042.56;4218647;28;22870;-65
2023/06/03 09:21:08;;;;;;;4.23;1.13;;;;;;;16.53;36.96;101036.25;4234332;28;20414;-68
2023/06/03 09:23:37;;;;;;;3.13;0.70;;;;;;;16.55;36.16;101031.44;4215800;28;20262;-68
2023/06/03 09:26:04;;;;;;;2.53;0.90;;;;;;;16.22;37.43;101042.41;4226787;28;20365;-65
2023/06/03 09:28:31;;;;;;;2.43;0.83;;;;;;;16.17;37.62;101036.56;4234547;28;20240;-67
2023/06/03 09:30:57;;;;;;;5.60;1.10;;;;;;;16.37;38.17;101041.72;4203605;28;20228;-68
2023/06/03 09:33:24;;;;;;;2.47;0.70;;;;;;;16.11;36.73;101029.06;4218459;28;20631;-69
2023/06/03 09:36:11;;;;;;;3.60;0.73;;;;;;;15.65;37.31;101032.22;4208044;28;21010;-68
2023/06/03 09:38:51;;;;;;;5.00;1.00;;;;;;;15.89;38.22;101036.06;4194775;28;20636;-69
2023/06/03 09:41:19;;;;;;;5.80;0.80;;;;;;;15.83;36.51;101038.41;4193400;28;20236;-68
2023/06/03 09:43:59;;;;;;;3.53;0.80;;;;;;;16.35;36.26;101035.56;4196878;28;20237;-71
2023/06/03 09:46:32;;;;;;;10.60;0.60;;;;;;;15.84;36.94;101037.38;4217319;28;20576;-71
2023/06/03 09:49:16;;;;;;;2.77;0.77;;;;;;;15.73;38.03;101040.41;4216483;28;23076;-72
2023/06/03 09:52:07;;;;;;;3.53;0.70;;;;;;;15.09;38.36;101031.81;4211101;28;20263;-74
2023/06/03 09:54:34;;;;;;;4.33;0.87;;;;;;;15.34;38.57;101030.88;4188974;28;22476;-76
2023/06/03 09:57:11;;;;;;;3.53;0.90;;;;;;;15.42;38.96;101027.34;4210178;28;21984;-75
2023/06/03 09:59:42;;;;;;;2.30;0.60;;;;;;;15.65;37.98;101030.31;4243539;28;20261;-73
2023/06/03 10:02:13;;;;;;;3.70;0.83;;;;;;;16.02;37.25;101035.53;4207680;28;21395;-70
2023/06/03 10:04:42;;;;;;;1.67;0.80;;;;;;;16.27;37.29;101039.16;4203474;28;20249;-70
2023/06/03 10:07:17;;;;;;;5.90;0.90;;;;;;;16.55;37.63;101036.91;4190956;28;20237;-68
2023/06/03 10:09:45;;;;;;;1.50;0.70;;;;;;;16.09;37.13;101026.50;4195216;28;20776;-67
2023/06/03 10:12:13;;;;;;;7.07;1.03;;;;;;;15.84;38.00;101037.38;4212877;28;20237;-69
2023/06/03 10:14:46;;;;;;;2.03;0.70;;;;;;;16.05;37.76;101030.59;4199750;28;20236;-66
2023/06/03 10:17:15;;;;;;;3.80;0.90;;;;;;;16.10;38.94;101030.09;4216359;28;20231;-45
2023/06/03 10:19:44;;;;;;;7.43;0.87;;;;;;;16.36;40.13;101029.94;4215854;28;21547;-43
2023/06/03 10:22:16;;;;;;;3.13;0.80;;;;;;;16.13;38.07;101022.41;4210510;28;20364;-46
2023/06/03 10:24:45;;;;;;;7.90;0.70;;;;;;;16.25;38.47;101025.66;4212758;28;20305;-50
2023/06/03 10:27:13;;;;;;;4.17;0.93;;;;;;;16.05;39.09;101027.84;4218444;28;20240;-47
2023/06/03 10:29:40;;;;;;;3.67;0.70;;;;;;;16.26;38.15;101023.81;4216100;28;20306;-43
2023/06/03 10:32:09;;;;;;;4.20;0.80;;;;;;;16.58;36.28;101022.91;4206503;28;20240;-44
2023/06/03 10:34:40;;;;;;;2.40;0.50;;;;;;;16.71;35.81;101013.31;4220361;28;20223;-43
2023/06/03 10:37:08;;;;;;;3.80;0.83;;;;;;;17.09;35.93;101021.81;4205697;28;20249;-44
2023/06/03 10:39:35;;;;;;;3.40;0.60;;;;;;;16.96;35.77;101014.16;4215118;28;20604;-43
2023/06/03 10:42:03;;;;;;;3.63;0.70;;;;;;;16.66;34.95;101018.47;4216929;28;20239;-68
2023/06/03 10:44:33;;;;;;;2.83;0.70;;;;;;;16.46;35.55;101007.91;4217675;28;20247;-70
2023/06/03 10:47:32;;;;;;;4.83;0.97;;;;;;;16.47;36.18;101012.31;4207839;28;20919;-75
2023/06/03 10:50:11;;;;;;;1.17;0.60;;;;;;;15.92;35.57;101020.19;4190815;28;20296;-72
2023/06/03 10:52:54;;;;;;;6.37;1.03;;;;;;;16.28;35.62;101010.78;4192266;28;20290;-71
2023/06/03 10:55:32;;;;;;;2.73;0.87;;;;;;;16.47;34.52;101002.28;4211638;28;20652;-78
2023/06/03 10:58:02;;;;;;;1.50;0.60;;;;;;;16.14;35.19;100996.81;4207705;28;20244;-73
2023/06/03 11:00:51;;;;;;;0.90;0.50;;;;;;;15.95;34.74;101005.34;4192278;28;20232;-69
2023/06/03 11:03:18;;;;;;;2.87;0.77;;;;;;;16.12;35.23;100998.00;4203922;28;21793;-69
2023/06/03 11:05:45;;;;;;;3.87;0.80;;;;;;;16.50;34.12;100992.88;4213326;28;20238;-72
2023/06/03 11:08:11;;;;;;;6.67;0.90;;;;;;;16.59;34.71;100993.69;4200481;28;20291;-72
2023/06/03 11:10:42;;;;;;;3.57;0.70;;;;;;;16.91;33.44;100987.31;4213618;28;21139;-73
2023/06/03 11:13:13;;;;;;;1.87;0.80;;;;;;;16.86;34.41;100991.59;4203360;28;20235;-73
2023/06/03 11:16:01;;;;;;;1.10;0.60;;;;;;;16.69;34.02;100983.44;4209745;28;21632;-74
2023/06/03 11:18:29;;;;;;;3.07;0.60;;;;;;;16.39;33.86;100987.78;4196915;28;20274;-72
2023/06/03 11:20:57;;;;;;;1.13;0.53;;;;;;;16.60;32.96;100981.75;4210046;28;20280;-70
2023/06/03 11:23:44;;;;;;;3.37;0.70;;;;;;;16.78;33.70;100982.41;4293543;28;20227;-70
2023/06/03 11:26:33;;;;;;;2.63;0.70;;;;;;;17.04;33.21;100980.47;4200301;28;21850;-72
2023/06/03 11:29:03;;;;;;;1.63;0.70;;;;;;;16.76;33.23;100978.13;4197276;28;20233;-73
2023/06/03 11:31:30;;;;;;;2.60;0.60;;;;;;;16.46;34.14;100969.66;4215351;28;20307;-71
2023/06/03 11:34:25;;;;;;;2.87;0.70;;;;;;;16.86;33.19;100978.78;4188216;28;20244;-70
2023/06/03 11:36:53;;;;;;;2.27;0.60;;;;;;;17.19;32.96;100984.16;4179130;28;20293;-71
2023/06/03 11:39:20;;;;;;;3.20;0.70;;;;;;;16.91;32.61;100981.84;4209078;28;23058;-67
2023/06/03 11:42:01;;;;;;;3.47;0.60;;;;;;;16.74;32.73;100975.56;4190331;28;22452;-68
2023/06/03 11:44:28;;;;;;;4.57;0.73;;;;;;;16.54;32.96;100977.81;4201876;28;21592;-68
2023/06/03 11:46:57;;;;;;;3.30;0.80;;;;;;;16.41;33.64;100978.38;4221920;28;20466;-66
2023/06/03 11:49:24;;;;;;;4.80;1.03;;;;;;;16.50;32.92;100979.19;4216637;28;20308;-68
2023/06/03 11:51:53;;;;;;;1.87;0.70;;;;;;;16.37;33.98;100968.78;4216036;28;20242;-68
2023/06/03 11:54:21;;;;;;;5.60;0.83;;;;;;;16.82;33.89;100971.09;4191811;28;22352;-67
2023/06/03 11:56:49;;;;;;;2.30;0.60;;;;;;;16.68;33.67;100970.78;4220362;28;20239;-68
2023/06/03 11:59:16;;;;;;;1.87;0.73;;;;;;;17.21;33.80;100967.56;4216888;28;22903;-66
2023/06/03 12:02:02;;;;;;;1.83;0.63;;;;;;;17.22;33.27;100969.28;4219126;28;20288;-66
2023/06/03 12:04:30;;;;;;;0.90;0.50;;;;;;;17.25;33.38;100974.41;4215688;28;20319;-67
2023/06/03 12:06:57;;;;;;;3.30;0.80;;;;;;;17.50;32.82;100966.03;4213974;28;20267;-66
2023/06/03 12:09:26;;;;;;;1.33;0.50;;;;;;;16.99;32.65;100964.59;4202356;28;20249;-66
2023/06/03 12:11:54;;;;;;;3.07;0.73;;;;;;;17.05;33.01;100969.34;4207617;28;22971;-47
2023/06/03 12:14:32;;;;;;;3.17;0.70;;;;;;;17.14;32.36;100967.44;4211279;28;20344;-67
2023/06/03 12:17:19;;;;;;;1.53;0.60;;;;;;;17.66;32.36;100963.19;4209295;28;22468;-67
2023/06/03 12:19:51;;;;;;;1.93;0.57;;;;;;;17.49;31.00;100962.47;4215714;28;20231;-64
2023/06/03 12:22:22;;;;;;;4.00;0.70;;;;;;;17.58;31.89;100961.38;4204712;28;20240;-68
2023/06/03 12:24:49;;;;;;;0.90;0.63;;;;;;;17.32;31.77;100952.63;4210444;28;22976;-68
2023/06/03 12:27:23;;;;;;;6.70;1.00;;;;;;;17.87;32.71;100951.59;4212140;28;20235;-43
2023/06/03 12:29:55;;;;;;;3.30;0.67;;;;;;;17.77;31.01;100950.97;4214010;28;20240;-41
2023/06/03 12:32:25;;;;;;;5.03;0.70;;;;;;;17.78;31.29;100940.88;4213660;28;20232;-45
2023/06/03 12:34:52;;;;;;;2.23;0.50;;;;;;;18.09;31.86;100949.03;4206347;28;20234;-46
2023/06/03 12:37:30;;;;;;;3.37;0.70;;;;;;;18.42;31.87;100948.75;4200739;28;22346;-51
2023/06/03 12:39:57;;;;;;;2.13;0.70;;;;;;;18.59;31.29;100949.44;4221275;28;20248;-45
2023/06/03 12:42:42;;;;;;;3.27;0.67;;;;;;;18.27;32.15;100943.22;4215957;28;22430;-47
2023/06/03 12:45:09;;;;;;;1.67;0.67;;;;;;;17.90;32.48;100945.72;4194586;28;20229;-42
2023/06/03 12:47:44;;;;;;;1.83;0.60;;;;;;;18.42;31.24;100945.16;4213748;28;20384;-45
2023/06/03 12:50:12;;;;;;;4.87;0.57;;;;;;;18.32;32.39;100934.44;4249177;28;21165;-45
2023/06/03 12:52:39;;;;;;;6.53;0.70;;;;;;;17.95;32.22;100934.25;4226207;28;20488;-45
2023/06/03 12:55:07;;;;;;;2.73;0.97;;;;;;;18.21;31.60;100930.28;4214075;28;20248;-46
2023/06/03 12:57:34;;;;;;;1.13;0.60;;;;;;;17.99;31.87;100929.25;4219341;28;20227;-43
2023/06/03 13:00:15;;;;;;;5.80;0.50;;;;;;;17.95;31.63;100931.53;4214468;28;20299;-41
2023/06/03 13:02:47;;;;;;;3.80;0.70;;;;;;;18.47;30.91;100923.50;4214530;28;20232;-52
2023/06/03 13:05:15;;;;;;;2.13;0.73;;;;;;;18.27;31.07;100918.56;4247969;28;25321;-71
2023/06/03 13:07:42;;;;;;;2.27;0.80;;;;;;;17.76;31.85;100918.31;4214642;28;20325;-70
2023/06/03 13:10:14;;;;;;;4.03;0.53;;;;;;;17.89;32.65;100927.63;4220007;28;20230;-69
2023/06/03 13:12:42;;;;;;;1.60;0.60;;;;;;;18.30;29.82;100925.56;4218672;28;21748;-70
2023/06/03 13:15:09;;;;;;;4.40;0.60;;;;;;;18.25;30.53;100923.38;4190283;28;20242;-70
2023/06/03 13:17:36;;;;;;;3.30;0.67;;;;;;;18.91;29.61;100919.06;4211535;28;20264;-73
2023/06/03 13:20:06;;;;;;;3.40;0.60;;;;;;;19.19;28.77;100921.97;4213437;28;25336;-72
2023/06/03 13:22:34;;;;;;;1.93;0.70;;;;;;;19.02;28.37;100915.88;4205928;28;20248;-66
2023/06/03 13:25:01;;;;;;;1.77;0.60;;;;;;;18.63;29.82;100909.59;4211832;28;22292;-67
2023/06/03 13:27:27;;;;;;;2.23;0.60;;;;;;;18.77;29.01;100913.41;4214005;28;22673;-66